createdAt,value
2018-06-09T00:00:57.742Z,82.37
2018-06-09T00:03:25.259Z,84.00
2018-06-09T00:05:52.821Z,85.37
2018-06-09T00:08:20.327Z,87.67
2018-06-09T00:10:47.838Z,88.70
2018-06-09T00:13:15.334Z,85.50
2018-06-09T00:15:42.834Z,83.73
2018-06-09T00:18:10.352Z,79.77
2018-06-09T00:20:37.856Z,77.33
2018-06-09T00:23:05.389Z,72.93
2018-06-09T00:25:32.905Z,70.67
2018-06-09T00:28:00.426Z,74.53
2018-06-09T00:30:27.950Z,67.10
2018-06-09T00:32:55.473Z,70.17
2018-06-09T00:35:23.008Z,74.37
2018-06-09T00:37:51.397Z,75.67
2018-06-09T00:40:18.896Z,79.07
2018-06-09T00:42:46.458Z,70.93
2018-06-09T00:45:13.954Z,65.90
2018-06-09T00:47:41.529Z,62.70
2018-06-09T00:50:09.077Z,59.43
2018-06-09T00:52:36.636Z,57.10
2018-06-09T00:55:04.294Z,46.80
2018-06-09T00:57:31.877Z,48.03
2018-06-09T00:59:59.397Z,44.10
2018-06-09T01:02:26.931Z,43.77
2018-06-09T01:04:54.420Z,39.70
2018-06-09T01:07:21.933Z,36.33
2018-06-09T01:09:50.434Z,32.97
2018-06-09T01:12:17.861Z,36.30
2018-06-09T01:14:51.981Z,34.37
2018-06-09T01:17:19.510Z,33.10
2018-06-09T01:19:47.048Z,30.50
2018-06-09T01:22:14.586Z,31.00
2018-06-09T01:24:42.089Z,31.97
2018-06-09T01:27:09.728Z,29.40
2018-06-09T01:29:37.263Z,29.93
2018-06-09T01:32:04.797Z,29.90
2018-06-09T01:34:32.333Z,30.03
2018-06-09T01:36:59.856Z,27.47
2018-06-09T01:39:27.389Z,26.77
2018-06-09T01:41:54.892Z,27.60
2018-06-09T01:44:22.524Z,26.73
2018-06-09T01:46:50.036Z,26.87
2018-06-09T01:49:17.646Z,24.07
2018-06-09T01:51:45.177Z,23.30
2018-06-09T01:54:12.701Z,22.53
2018-06-09T01:56:40.212Z,22.60
2018-06-09T01:59:07.733Z,23.93
2018-06-09T02:01:35.231Z,24.57
2018-06-09T02:04:02.748Z,22.27
2018-06-09T02:06:30.263Z,21.70
2018-06-09T02:08:57.772Z,23.53
2018-06-09T02:11:25.256Z,21.40
2018-06-09T02:13:52.773Z,23.17
2018-06-09T02:16:20.279Z,22.07
2018-06-09T02:18:47.807Z,22.87
2018-06-09T02:21:15.301Z,22.87
2018-06-09T02:23:42.830Z,22.60
2018-06-09T02:26:10.302Z,21.13
2018-06-09T02:28:37.821Z,21.67
2018-06-09T02:31:05.394Z,23.33
2018-06-09T02:33:35.852Z,20.03
2018-06-09T02:36:03.402Z,21.87
2018-06-09T02:38:30.911Z,20.67
2018-06-09T02:40:58.458Z,21.57
2018-06-09T02:43:25.960Z,18.47
2018-06-09T02:45:53.481Z,20.70
2018-06-09T02:48:20.989Z,21.80
2018-06-09T02:50:48.532Z,24.03
2018-06-09T02:53:16.012Z,22.13
2018-06-09T02:55:43.567Z,21.80
2018-06-09T02:58:11.072Z,19.90
2018-06-09T03:00:38.610Z,20.47
2018-06-09T03:03:06.125Z,19.97
2018-06-09T03:05:33.674Z,21.20
2018-06-09T03:08:01.190Z,20.10
2018-06-09T03:10:28.719Z,21.43
2018-06-09T03:12:56.226Z,19.37
2018-06-09T03:15:23.731Z,20.03
2018-06-09T03:17:51.213Z,21.20
2018-06-09T03:20:18.778Z,20.27
2018-06-09T03:22:46.283Z,20.13
2018-06-09T03:25:13.802Z,18.70
2018-06-09T03:27:41.313Z,22.70
2018-06-09T03:30:08.861Z,20.30
2018-06-09T03:32:36.398Z,20.03
2018-06-09T03:35:04.039Z,19.43
2018-06-09T03:37:31.537Z,21.57
2018-06-09T03:39:59.030Z,19.60
2018-06-09T03:42:26.585Z,21.13
2018-06-09T03:44:54.380Z,20.83
2018-06-09T03:47:21.911Z,19.90
2018-06-09T03:49:49.413Z,20.67
2018-06-09T03:52:17.175Z,20.80
2018-06-09T03:54:44.691Z,19.63
2018-06-09T03:57:12.204Z,20.50
2018-06-09T03:59:39.710Z,19.60
2018-06-09T04:02:07.238Z,19.90
2018-06-09T04:04:34.765Z,19.67
2018-06-09T04:07:02.300Z,18.33
2018-06-09T04:09:29.798Z,20.10
2018-06-09T04:11:57.340Z,20.50
2018-06-09T04:14:24.764Z,20.17
2018-06-09T04:16:52.294Z,19.67
2018-06-09T04:19:19.790Z,18.50
2018-06-09T04:21:47.354Z,20.60
2018-06-09T04:24:14.860Z,19.30
2018-06-09T04:26:42.386Z,17.77
2018-06-09T04:29:09.885Z,18.20
2018-06-09T04:31:37.408Z,17.03
2018-06-09T04:34:05.057Z,16.30
2018-06-09T04:36:32.529Z,17.53
2018-06-09T04:39:00.052Z,16.93
2018-06-09T04:41:27.577Z,16.77
2018-06-09T04:43:55.097Z,18.80
2018-06-09T04:46:22.592Z,15.50
2018-06-09T04:48:50.124Z,18.07
2018-06-09T04:51:17.633Z,16.60
2018-06-09T04:53:45.178Z,17.40
2018-06-09T04:56:12.695Z,17.27
2018-06-09T04:58:40.270Z,17.17
2018-06-09T05:01:07.765Z,17.07
2018-06-09T05:03:35.297Z,16.70
2018-06-09T05:06:02.817Z,17.23
2018-06-09T05:08:30.374Z,16.23
2018-06-09T05:10:57.824Z,16.47
2018-06-09T05:13:25.265Z,16.60
2018-06-09T05:15:52.770Z,16.67
2018-06-09T05:18:20.329Z,17.17
2018-06-09T05:20:47.858Z,15.83
2018-06-09T05:23:22.072Z,16.70
2018-06-09T05:25:49.574Z,15.63
2018-06-09T05:28:17.095Z,16.00
2018-06-09T05:30:44.603Z,16.33
2018-06-09T05:33:12.144Z,15.67
2018-06-09T05:35:39.676Z,15.23
2018-06-09T05:38:07.224Z,16.57
2018-06-09T05:40:34.678Z,16.93
2018-06-09T05:43:02.369Z,16.17
2018-06-09T05:45:29.926Z,15.90
2018-06-09T05:47:57.478Z,16.30
2018-06-09T05:50:25.076Z,15.67
2018-06-09T05:52:52.568Z,15.23
2018-06-09T05:55:20.107Z,16.67
2018-06-09T05:57:47.698Z,15.60
2018-06-09T06:00:15.309Z,16.40
2018-06-09T06:02:42.825Z,16.80
2018-06-09T06:05:10.427Z,15.77
2018-06-09T06:07:37.991Z,15.57
2018-06-09T06:10:05.653Z,16.07
2018-06-09T06:12:33.245Z,16.47
2018-06-09T06:15:00.785Z,15.77
2018-06-09T06:17:28.321Z,15.70
2018-06-09T06:19:55.937Z,15.90
2018-06-09T06:22:23.553Z,15.80
2018-06-09T06:24:51.157Z,15.70
2018-06-09T06:27:18.712Z,15.77
2018-06-09T06:29:46.293Z,15.43
2018-06-09T06:32:13.813Z,16.27
2018-06-09T06:34:42.551Z,15.90
2018-06-09T06:37:10.131Z,16.30
2018-06-09T06:39:37.695Z,15.17
2018-06-09T06:42:05.304Z,16.50
2018-06-09T06:44:32.817Z,17.47
2018-06-09T06:47:00.441Z,16.77
2018-06-09T06:49:28.018Z,16.60
2018-06-09T06:51:55.614Z,17.40
2018-06-09T06:54:23.120Z,16.53
2018-06-09T06:56:50.673Z,18.97
2018-06-09T06:59:18.205Z,17.60
2018-06-09T07:01:45.713Z,20.00
2018-06-09T07:04:13.214Z,17.57
2018-06-09T07:06:40.741Z,17.63
2018-06-09T07:09:08.237Z,20.20
2018-06-09T07:11:36.005Z,21.50
2018-06-09T07:14:03.591Z,19.93
2018-06-09T07:16:31.137Z,20.60
2018-06-09T07:18:58.685Z,20.63
2018-06-09T07:21:26.181Z,21.13
2018-06-09T07:23:53.794Z,20.60
2018-06-09T07:26:21.300Z,20.63
2018-06-09T07:28:48.842Z,21.27
2018-06-09T07:31:16.389Z,20.30
2018-06-09T07:33:43.938Z,20.37
2018-06-09T07:36:11.578Z,18.67
2018-06-09T07:38:39.132Z,19.40
2018-06-09T07:41:06.729Z,18.37
2018-06-09T07:43:34.352Z,19.43
2018-06-09T07:46:01.888Z,18.73
2018-06-09T07:48:29.413Z,20.57
2018-06-09T07:50:56.924Z,20.83
2018-06-09T07:53:24.512Z,21.67
2018-06-09T07:55:52.079Z,20.37
2018-06-09T07:58:19.735Z,20.47
2018-06-09T08:00:47.347Z,19.23
2018-06-09T08:03:14.881Z,19.43
2018-06-09T08:05:42.417Z,18.10
2018-06-09T08:08:10.614Z,18.40
2018-06-09T08:10:38.228Z,19.20
2018-06-09T08:13:05.832Z,18.50
2018-06-09T08:15:33.364Z,18.80
2018-06-09T08:18:00.905Z,17.83
2018-06-09T08:20:28.433Z,16.63
2018-06-09T08:22:55.953Z,17.43
2018-06-09T08:25:23.553Z,18.30
2018-06-09T08:27:51.065Z,17.93
2018-06-09T08:30:18.592Z,19.47
2018-06-09T08:32:46.105Z,16.43
2018-06-09T08:35:13.701Z,16.47
2018-06-09T08:37:41.242Z,16.50
2018-06-09T08:40:08.760Z,17.80
2018-06-09T08:42:36.285Z,18.67
2018-06-09T08:45:03.828Z,17.90
2018-06-09T08:47:31.380Z,16.60
2018-06-09T08:49:58.917Z,17.63
2018-06-09T08:52:26.474Z,18.20
2018-06-09T08:54:54.082Z,18.90
2018-06-09T08:57:21.640Z,16.67
2018-06-09T08:59:49.102Z,17.10
2018-06-09T09:02:16.665Z,19.10
2018-06-09T09:04:44.186Z,18.60
2018-06-09T09:07:11.915Z,18.53
2018-06-09T09:09:39.628Z,17.50
2018-06-09T09:12:07.254Z,19.03
2018-06-09T09:14:34.829Z,16.83
2018-06-09T09:17:02.391Z,18.00
2018-06-09T09:19:29.905Z,17.30
2018-06-09T09:21:57.475Z,17.63
2018-06-09T09:24:25.125Z,17.60
2018-06-09T09:26:52.628Z,17.63
2018-06-09T09:29:20.144Z,19.30
2018-06-09T09:31:47.852Z,17.97
2018-06-09T09:34:15.538Z,17.37
2018-06-09T09:36:43.127Z,16.93
2018-06-09T09:39:13.614Z,17.90
2018-06-09T09:41:41.364Z,18.87
2018-06-09T09:44:08.901Z,16.40
2018-06-09T09:46:36.418Z,17.03
2018-06-09T09:49:04.070Z,17.87
2018-06-09T09:51:31.703Z,18.67
2018-06-09T09:53:59.324Z,19.80
2018-06-09T09:56:26.830Z,16.67
2018-06-09T09:58:54.373Z,18.33
2018-06-09T10:01:22.032Z,17.63
2018-06-09T10:03:49.717Z,17.30
2018-06-09T10:06:17.228Z,16.30
2018-06-09T10:08:44.890Z,17.67
2018-06-09T10:11:12.428Z,19.27
2018-06-09T10:13:40.010Z,20.87
2018-06-09T10:16:07.679Z,20.00
2018-06-09T10:18:35.310Z,18.57
2018-06-09T10:21:02.917Z,20.10
2018-06-09T10:23:31.097Z,18.77
2018-06-09T10:25:58.628Z,21.33
2018-06-09T10:28:26.209Z,19.97
2018-06-09T10:30:53.746Z,19.10
2018-06-09T10:33:21.304Z,18.90
2018-06-09T10:35:48.864Z,19.43
2018-06-09T10:38:23.006Z,19.27
2018-06-09T10:40:50.534Z,19.07
2018-06-09T10:43:18.098Z,19.37
2018-06-09T10:45:45.664Z,18.17
2018-06-09T10:48:13.831Z,19.30
2018-06-09T10:50:41.392Z,18.70
2018-06-09T10:53:08.920Z,21.37
2018-06-09T10:55:36.435Z,19.20
2018-06-09T10:58:04.116Z,19.80
2018-06-09T11:00:31.757Z,21.13
2018-06-09T11:02:59.309Z,19.57
2018-06-09T11:05:26.910Z,19.70
2018-06-09T11:07:54.433Z,20.07
2018-06-09T11:10:21.958Z,20.97
2018-06-09T11:12:49.468Z,20.17
2018-06-09T11:15:17.157Z,19.80
2018-06-09T11:17:45.845Z,22.10
2018-06-09T11:20:13.539Z,23.10
2018-06-09T11:22:41.079Z,21.33
2018-06-09T11:25:08.593Z,21.53
2018-06-09T11:27:36.121Z,19.60
2018-06-09T11:30:03.819Z,20.83
2018-06-09T11:32:31.626Z,22.03
2018-06-09T11:34:59.385Z,20.00
2018-06-09T11:37:26.928Z,23.27
2018-06-09T11:39:54.523Z,22.03
2018-06-09T11:42:25.117Z,22.00
2018-06-09T11:44:52.718Z,22.70
2018-06-09T11:47:20.755Z,21.87
2018-06-09T11:49:48.285Z,23.00
2018-06-09T11:52:16.541Z,22.07
2018-06-09T11:54:44.132Z,21.13
2018-06-09T11:57:11.643Z,23.47
2018-06-09T11:59:39.173Z,22.20
2018-06-09T12:02:06.707Z,21.73
2018-06-09T12:04:34.229Z,20.63
2018-06-09T12:07:01.802Z,21.77
2018-06-09T12:09:29.308Z,24.73
2018-06-09T12:11:56.845Z,24.20
2018-06-09T12:14:24.397Z,22.80
2018-06-09T12:16:51.948Z,25.17
2018-06-09T12:19:19.500Z,22.03
2018-06-09T12:21:47.083Z,25.27
2018-06-09T12:24:14.606Z,24.63
2018-06-09T12:26:42.153Z,23.10
2018-06-09T12:29:09.727Z,25.03
2018-06-09T12:31:37.277Z,24.37
2018-06-09T12:34:04.846Z,23.07
2018-06-09T12:36:32.386Z,22.03
2018-06-09T12:39:00.034Z,25.80
2018-06-09T12:41:27.590Z,24.00
2018-06-09T12:43:55.103Z,23.10
2018-06-09T12:46:23.328Z,24.43
2018-06-09T12:48:51.858Z,25.13
2018-06-09T12:51:19.394Z,23.40
2018-06-09T12:53:46.917Z,24.83
2018-06-09T12:56:14.423Z,23.00
2018-06-09T12:58:42.351Z,24.23
2018-06-09T13:01:09.868Z,25.27
2018-06-09T13:03:37.482Z,24.27
2018-06-09T13:06:05.060Z,25.17
2018-06-09T13:08:32.653Z,24.80
2018-06-09T13:11:00.200Z,22.67
2018-06-09T13:13:27.769Z,23.70
2018-06-09T13:15:55.293Z,24.03
2018-06-09T13:18:23.194Z,22.97
2018-06-09T13:20:50.714Z,21.87
2018-06-09T13:23:19.146Z,24.30
2018-06-09T13:25:46.651Z,23.83
2018-06-09T13:28:14.235Z,22.97
2018-06-09T13:30:41.769Z,25.47
2018-06-09T13:33:09.380Z,23.93
2018-06-09T13:35:36.896Z,25.60
2018-06-09T13:38:04.343Z,24.30
2018-06-09T13:40:31.813Z,25.40
2018-06-09T13:42:59.294Z,24.20
2018-06-09T13:45:26.816Z,23.23
2018-06-09T13:47:54.342Z,23.20
2018-06-09T13:50:21.865Z,24.20
2018-06-09T13:52:49.365Z,23.13
2018-06-09T13:55:16.900Z,23.07
2018-06-09T13:57:44.409Z,23.90
2018-06-09T14:00:12.180Z,23.53
2018-06-09T14:02:40.586Z,23.30
2018-06-09T14:05:08.185Z,25.23
2018-06-09T14:07:37.717Z,23.73
2018-06-09T14:10:05.245Z,27.40
2018-06-09T14:12:32.765Z,26.03
2018-06-09T14:15:00.297Z,24.90
2018-06-09T14:17:27.966Z,26.17
2018-06-09T14:19:55.503Z,26.00
2018-06-09T14:22:23.033Z,24.50
2018-06-09T14:24:50.628Z,25.27
2018-06-09T14:27:18.032Z,23.93
2018-06-09T14:29:45.654Z,23.47
2018-06-09T14:32:13.177Z,24.60
2018-06-09T14:34:40.695Z,24.77
2018-06-09T14:37:08.477Z,24.93
2018-06-09T14:39:36.013Z,22.77
2018-06-09T14:42:03.641Z,23.37
2018-06-09T14:44:31.172Z,24.03
2018-06-09T14:46:58.860Z,28.13
2018-06-09T14:49:26.420Z,26.43
2018-06-09T14:51:53.893Z,22.60
2018-06-09T14:54:21.403Z,23.70
2018-06-09T14:56:48.926Z,26.97
2018-06-09T14:59:16.613Z,26.27
2018-06-09T15:01:44.174Z,25.97
2018-06-09T15:04:11.702Z,25.10
2018-06-09T15:06:39.229Z,24.97
2018-06-09T15:09:07.973Z,22.70
2018-06-09T15:11:35.573Z,21.77
2018-06-09T15:14:03.156Z,23.03
2018-06-09T15:16:30.914Z,22.20
2018-06-09T15:18:58.444Z,22.47
2018-06-09T15:21:26.039Z,22.80
2018-06-09T15:23:53.573Z,21.57
2018-06-09T15:26:21.093Z,21.40
2018-06-09T15:28:48.609Z,23.10
2018-06-09T15:31:16.178Z,20.67
2018-06-09T15:33:43.764Z,19.30
2018-06-09T15:36:11.373Z,19.87
2018-06-09T15:38:38.784Z,20.90
2018-06-09T15:41:06.292Z,18.60
2018-06-09T15:43:33.932Z,20.10
2018-06-09T15:46:01.480Z,20.23
2018-06-09T15:48:29.030Z,19.23
2018-06-09T15:50:56.873Z,18.03
2018-06-09T15:53:24.447Z,18.30
2018-06-09T15:55:52.593Z,18.00
2018-06-09T15:58:20.255Z,18.67
2018-06-09T16:00:47.815Z,18.50
2018-06-09T16:03:15.347Z,17.50
2018-06-09T16:05:42.931Z,17.90
2018-06-09T16:08:10.516Z,17.27
2018-06-09T16:10:38.108Z,16.33
2018-06-09T16:13:05.727Z,16.63
2018-06-09T16:15:33.270Z,18.10
2018-06-09T16:18:00.858Z,17.83
2018-06-09T16:20:28.396Z,19.10
2018-06-09T16:22:55.948Z,19.07
2018-06-09T16:25:23.541Z,19.67
2018-06-09T16:27:51.070Z,18.67
2018-06-09T16:30:18.580Z,17.07
2018-06-09T16:32:46.155Z,16.70
2018-06-09T16:35:13.632Z,18.00
2018-06-09T16:37:41.199Z,16.80
2018-06-09T16:40:08.753Z,16.43
2018-06-09T16:42:36.309Z,19.27
2018-06-09T16:45:03.974Z,20.03
2018-06-09T16:47:31.584Z,18.63
2018-06-09T16:49:59.112Z,20.57
2018-06-09T16:52:26.664Z,19.10
2018-06-09T16:54:54.176Z,17.93
2018-06-09T16:57:21.674Z,18.87
2018-06-09T16:59:49.242Z,18.63
2018-06-09T17:02:16.783Z,19.70
2018-06-09T17:04:44.284Z,19.97
2018-06-09T17:07:11.809Z,20.40
2018-06-09T17:09:39.336Z,19.60
2018-06-09T17:12:06.982Z,20.07
2018-06-09T17:14:34.555Z,19.23
2018-06-09T17:17:02.070Z,22.63
2018-06-09T17:19:29.614Z,26.60
2018-06-09T17:21:57.248Z,22.00
2018-06-09T17:24:28.912Z,23.60
2018-06-09T17:26:56.722Z,22.93
2018-06-09T17:29:24.300Z,21.80
2018-06-09T17:31:51.874Z,21.60
2018-06-09T17:34:19.389Z,21.93
2018-06-09T17:37:08.032Z,22.33
2018-06-09T17:39:36.097Z,22.43
2018-06-09T17:42:03.732Z,24.50
2018-06-09T17:44:31.236Z,25.60
2018-06-09T17:46:58.813Z,24.57
2018-06-09T17:49:26.322Z,23.90
2018-06-09T17:51:53.853Z,24.63
2018-06-09T17:54:21.500Z,23.23
2018-06-09T17:56:49.013Z,26.37
2018-06-09T17:59:16.578Z,26.70
2018-06-09T18:01:44.173Z,25.27
2018-06-09T18:04:11.718Z,24.50
2018-06-09T18:06:39.286Z,25.10
2018-06-09T18:09:07.685Z,24.67
2018-06-09T18:11:35.517Z,24.90
2018-06-09T18:14:03.157Z,25.63
2018-06-09T18:16:30.688Z,26.67
2018-06-09T18:18:58.228Z,26.03
2018-06-09T18:21:25.777Z,23.73
2018-06-09T18:23:53.325Z,23.70
2018-06-09T18:26:20.957Z,24.23
2018-06-09T18:28:48.656Z,25.00
2018-06-09T18:31:16.081Z,24.40
2018-06-09T18:33:43.694Z,26.83
2018-06-09T18:36:11.184Z,26.10
2018-06-09T18:38:38.741Z,26.43
2018-06-09T18:41:06.334Z,25.57
2018-06-09T18:43:33.792Z,25.07
2018-06-09T18:46:01.297Z,27.47
2018-06-09T18:48:28.814Z,27.23
2018-06-09T18:50:56.346Z,27.30
2018-06-09T18:53:23.873Z,27.50
2018-06-09T18:55:52.057Z,28.33
2018-06-09T18:58:19.618Z,27.30
2018-06-09T19:00:47.125Z,28.97
2018-06-09T19:03:14.564Z,26.97
2018-06-09T19:05:42.096Z,29.50
2018-06-09T19:08:09.633Z,29.20
2018-06-09T19:10:37.153Z,29.03
2018-06-09T19:13:04.771Z,28.50
2018-06-09T19:15:32.323Z,29.33
2018-06-09T19:17:59.875Z,30.07
2018-06-09T19:20:27.446Z,29.77
2018-06-09T19:22:54.964Z,28.90
2018-06-09T19:25:22.488Z,27.30
2018-06-09T19:27:50.006Z,30.20
2018-06-09T19:32:51.785Z,28.57
2018-06-09T19:35:19.394Z,29.50
2018-06-09T19:37:46.937Z,29.63
2018-06-09T19:40:14.468Z,31.40
2018-06-09T19:42:42.021Z,30.00
2018-06-09T19:45:09.529Z,28.93
2018-06-09T19:47:37.057Z,29.23
2018-06-09T19:50:04.573Z,27.80
2018-06-09T19:52:32.078Z,28.07
2018-06-09T19:54:59.600Z,30.37
2018-06-09T19:57:27.148Z,27.93
2018-06-09T19:59:54.678Z,31.67
2018-06-09T20:02:22.202Z,30.80
2018-06-09T20:04:49.716Z,31.50
2018-06-09T20:07:17.248Z,30.50
2018-06-09T20:09:45.601Z,31.67
2018-06-09T20:12:13.117Z,34.10
2018-06-09T20:14:40.656Z,34.20
2018-06-09T20:17:08.164Z,32.03
2018-06-09T20:19:35.694Z,32.50
2018-06-09T20:22:03.184Z,32.10
2018-06-09T20:24:30.710Z,32.20
2018-06-09T20:26:58.346Z,32.87
2018-06-09T20:29:25.852Z,32.40
2018-06-09T20:31:53.381Z,33.60
2018-06-09T20:34:20.981Z,35.37
2018-06-09T20:36:48.477Z,34.97
2018-06-09T20:39:15.984Z,36.10
2018-06-09T20:41:43.577Z,35.20
2018-06-09T20:44:11.137Z,34.77
2018-06-09T20:46:38.713Z,36.97
2018-06-09T20:49:06.240Z,34.27
2018-06-09T20:51:33.862Z,36.60
2018-06-09T20:54:02.346Z,37.87
2018-06-09T20:56:29.889Z,37.17
2018-06-09T20:58:57.405Z,35.73
2018-06-09T21:01:24.960Z,39.57
2018-06-09T21:03:52.502Z,36.50
2018-06-09T21:06:20.035Z,38.10
2018-06-09T21:08:47.587Z,36.37
2018-06-09T21:11:15.167Z,34.60
2018-06-09T21:13:42.735Z,39.90
2018-06-09T21:16:10.316Z,47.50
2018-06-09T21:18:37.852Z,45.83
2018-06-09T21:21:05.441Z,36.10
2018-06-09T21:23:32.999Z,38.97
2018-06-09T21:26:00.579Z,30.93
2018-06-09T21:28:32.646Z,26.67
2018-06-09T21:31:16.844Z,21.93
2018-06-09T21:34:01.359Z,23.93
2018-06-09T21:36:34.370Z,18.73
2018-06-09T21:39:07.577Z,13.73
2018-06-09T21:41:40.713Z,11.70
2018-06-09T21:44:13.905Z,10.17
2018-06-09T21:46:46.997Z,10.53
2018-06-09T21:49:15.685Z,10.40
2018-06-09T21:51:43.256Z,18.30
2018-06-09T21:54:10.807Z,18.90
2018-06-09T21:56:38.285Z,10.63
2018-06-09T21:59:06.199Z,9.30
2018-06-09T22:01:34.177Z,8.47
2018-06-09T22:04:01.750Z,7.67
2018-06-09T22:06:29.309Z,9.07
2018-06-09T22:08:56.878Z,9.70
2018-06-09T22:11:24.468Z,10.83
2018-06-09T22:13:52.101Z,10.60
2018-06-09T22:16:19.600Z,9.73
2018-06-09T22:18:47.148Z,8.67
2018-06-09T22:21:14.660Z,8.50
2018-06-09T22:23:42.174Z,8.87
2018-06-09T22:26:15.208Z,9.20
2018-06-09T22:28:43.149Z,8.40
2018-06-09T22:31:10.674Z,7.97
2018-06-09T22:33:38.332Z,9.97
2018-06-09T22:36:05.915Z,8.97
2018-06-09T22:38:33.448Z,9.30
2018-06-09T22:41:00.987Z,9.40
2018-06-09T22:43:28.534Z,9.50
2018-06-09T22:45:56.038Z,10.57
2018-06-09T22:48:23.590Z,11.00
2018-06-09T22:50:51.161Z,11.37
2018-06-09T22:53:18.705Z,10.30
2018-06-09T22:55:46.462Z,10.20
2018-06-09T22:58:14.029Z,10.10
2018-06-09T23:00:47.328Z,10.40
2018-06-09T23:03:15.644Z,11.47
2018-06-09T23:05:43.289Z,11.70
2018-06-09T23:08:10.912Z,12.23
2018-06-09T23:10:38.492Z,10.00
2018-06-09T23:13:06.105Z,10.40
2018-06-09T23:15:33.630Z,9.87
2018-06-09T23:18:01.173Z,10.70
2018-06-09T23:20:28.704Z,10.30
2018-06-09T23:22:56.262Z,11.30
2018-06-09T23:25:23.819Z,10.50
2018-06-09T23:27:51.337Z,10.20
2018-06-09T23:30:18.880Z,10.73
2018-06-09T23:32:46.420Z,10.07
2018-06-09T23:35:14.637Z,9.83
2018-06-09T23:37:42.150Z,11.20
2018-06-09T23:40:09.688Z,11.10
2018-06-09T23:42:37.229Z,11.17
2018-06-09T23:45:04.751Z,11.00
2018-06-09T23:47:32.301Z,11.27
2018-06-09T23:49:59.866Z,11.90
2018-06-09T23:52:27.353Z,9.63
2018-06-09T23:54:54.887Z,10.57
2018-06-09T23:57:22.441Z,9.87
2018-06-09T23:59:49.980Z,9.90
